Terminal Aerodrome Forecast
Issued by NWS

Home | Current Version | Previous Version | Text Only | Print | Product List | Glossary On
Versions: 1 2 3 4 5 6 7 8 9 10 11 12 13 14 15 16 17 18 19
000
FTUS43 KMPX 032158 AAA
TAFRNH
TAF AMD
KRNH 032158Z 0322/0418 31008KT P6SM VCSH BKN050
      TEMPO 0323/0401 35025G40KT 3SM TSRAGR OVC030CB
     FM040100 35010KT P6SM VCSH SCT050
     FM040700 35008KT P6SM BKN250
     FM041300 01010KT P6SM BKN250=

USA.gov is the U.S. government's official web portal to all federal, state and local government web resources and services.